Time;durP1;ratioP1;P1;durP2;ratioP2;P2;SDS_P1;SDS_P2;PMS_P1;PMS_P2;Temp;Humidity;BMP_temperature;BMP_pressure;BME280_temperature;BME280_humidity;BME280_pressure;Samples;Min_cycle;Max_cycle;Signal;HPM_P1;HPM_P2
2024/01/28 00:02:25;;;;;;;4.33;2.50;;;;;;;0.13;100.00;146280.78;4955034;28;20230;-61
2024/01/28 00:04:53;;;;;;;8.47;2.80;;;;;;;0.07;100.00;146267.16;4948708;28;20221;-61
2024/01/28 00:07:20;;;;;;;5.57;2.50;;;;;;;0.07;100.00;146267.16;4953194;28;20264;-61
2024/01/28 00:09:46;;;;;;;8.47;2.40;;;;;;;0.07;100.00;146267.16;4956108;28;20233;-60
2024/01/28 00:12:13;;;;;;;5.70;2.53;;;;;;;0.07;100.00;146267.16;4937673;28;20236;-60
2024/01/28 00:14:40;;;;;;;8.37;2.50;;;;;;;-0.05;100.00;146237.53;4955371;28;20231;-61
2024/01/28 00:17:07;;;;;;;5.77;2.27;;;;;;;-0.12;100.00;146221.44;4955049;28;20224;-61
2024/01/28 00:19:33;;;;;;;4.57;2.23;;;;;;;-0.17;100.00;146210.34;4956592;28;20217;-61
2024/01/28 00:22:03;;;;;;;2.77;1.70;;;;;;;-0.14;100.00;146215.28;4955556;28;20225;-61
2024/01/28 00:24:29;;;;;;;4.83;2.00;;;;;;;-0.21;100.00;146200.44;4952158;28;21951;-61
2024/01/28 00:26:56;;;;;;;7.23;2.17;;;;;;;-0.34;100.00;146169.53;4958477;28;20707;-61
2024/01/28 00:29:28;;;;;;;4.23;2.47;;;;;;;-0.41;100.00;146151.00;4955057;28;20228;-61
2024/01/28 00:31:55;;;;;;;3.60;2.43;;;;;;;-0.32;100.00;146173.25;4970677;28;20230;-62
2024/01/28 00:34:21;;;;;;;8.40;2.83;;;;;;;-0.37;100.00;146160.91;4951772;28;20237;-61
2024/01/28 00:36:48;;;;;;;5.33;2.00;;;;;;;-0.41;100.00;146151.00;4955234;28;20218;-61
2024/01/28 00:39:16;;;;;;;5.20;2.20;;;;;;;-0.45;100.00;146143.59;4954743;28;20230;-61
2024/01/28 00:41:43;;;;;;;5.23;2.10;;;;;;;-0.55;100.00;146118.88;4953101;28;20602;-61
2024/01/28 00:44:09;;;;;;;3.37;2.20;;;;;;;-0.58;100.00;146110.25;4959926;28;20228;-61
2024/01/28 00:46:36;;;;;;;6.30;2.70;;;;;;;-0.55;100.00;146118.88;4956380;28;20235;-60
2024/01/28 00:49:03;;;;;;;4.07;2.10;;;;;;;-0.58;100.00;146111.47;4962872;28;20235;-61
2024/01/28 00:51:30;;;;;;;7.70;2.37;;;;;;;-0.63;100.00;146100.38;4956694;28;20303;-60
2024/01/28 00:53:56;;;;;;;4.90;2.50;;;;;;;-0.60;100.00;146106.53;4961571;28;20229;-60
2024/01/28 00:56:24;;;;;;;4.53;2.10;;;;;;;-0.71;100.00;146080.59;4956592;28;20233;-60
2024/01/28 00:58:51;;;;;;;4.37;2.47;;;;;;;-0.82;100.00;146054.63;4958464;28;20217;-60
2024/01/28 01:01:19;;;;;;;6.13;2.10;;;;;;;-0.86;100.00;146043.53;4944788;28;20256;-60
2024/01/28 01:03:45;;;;;;;3.97;2.30;;;;;;;-0.93;100.00;146028.72;4951862;28;20235;-60
2024/01/28 01:06:12;;;;;;;6.17;2.60;;;;;;;-0.91;100.00;146033.66;4949140;28;20242;-60
2024/01/28 01:08:38;;;;;;;5.93;2.20;;;;;;;-0.86;100.00;146043.53;4962974;28;20247;-61
2024/01/28 01:11:07;;;;;;;6.50;2.27;;;;;;;-0.88;100.00;146038.59;4961583;28;20225;-61
2024/01/28 01:13:35;;;;;;;5.10;2.37;;;;;;;-0.88;100.00;146039.81;4957796;28;20253;-61
2024/01/28 01:16:02;;;;;;;3.90;2.17;;;;;;;-0.91;100.00;146033.66;4974029;28;20223;-61
2024/01/28 01:18:30;;;;;;;5.73;2.63;;;;;;;-1.00;100.00;146011.44;4956254;28;20235;-61
2024/01/28 01:20:56;;;;;;;5.80;2.10;;;;;;;-1.06;100.00;145997.81;4960074;28;20233;-60
2024/01/28 01:23:23;;;;;;;5.50;2.83;;;;;;;-1.01;100.00;146008.97;4957403;28;20241;-61
2024/01/28 01:25:50;;;;;;;7.53;2.70;;;;;;;-1.03;100.00;146004.00;4959664;28;20236;-61
2024/01/28 01:28:17;;;;;;;6.40;2.27;;;;;;;-1.06;100.00;145996.59;4954560;28;20316;-61
2024/01/28 01:30:45;;;;;;;4.33;2.50;;;;;;;-1.16;100.00;145973.16;4961652;28;20241;-61
2024/01/28 01:33:12;;;;;;;8.53;3.30;;;;;;;-1.18;100.00;145968.22;4956182;28;20228;-61
2024/01/28 01:35:38;;;;;;;7.40;3.00;;;;;;;-1.16;100.00;145973.16;4952155;28;20237;-61
2024/01/28 01:38:05;;;;;;;8.50;3.63;;;;;;;-1.16;100.00;145971.91;4960995;28;20238;-61
2024/01/28 01:40:31;;;;;;;12.77;3.50;;;;;;;-1.08;100.00;145992.91;4958249;28;20229;-61
2024/01/28 01:42:58;;;;;;;7.07;3.37;;;;;;;-1.06;100.00;145997.81;4960547;28;20911;-61
2024/01/28 01:45:25;;;;;;;5.30;3.40;;;;;;;-1.08;100.00;145991.66;4955443;28;20236;-61
2024/01/28 01:47:53;;;;;;;8.67;3.10;;;;;;;-1.11;100.00;145985.50;4958889;28;20229;-61
2024/01/28 01:50:20;;;;;;;13.80;3.67;;;;;;;-1.12;100.00;145981.78;4959540;28;20230;-61
2024/01/28 01:52:46;;;;;;;11.33;3.60;;;;;;;-1.16;100.00;145971.91;4960131;28;20292;-61
2024/01/28 01:55:13;;;;;;;6.60;3.90;;;;;;;-1.20;100.00;145963.28;4953118;28;20243;-61
2024/01/28 01:57:42;;;;;;;7.33;3.80;;;;;;;-1.23;100.00;145955.88;4955950;28;20264;-61
2024/01/28 02:00:14;;;;;;;9.93;3.63;;;;;;;-1.25;100.00;145952.13;4960108;28;20221;-61
2024/01/28 02:02:43;;;;;;;7.23;3.67;;;;;;;-1.34;100.00;145931.16;4958512;28;20236;-61
2024/01/28 02:05:14;;;;;;;7.77;4.03;;;;;;;-1.35;100.00;145928.69;4954899;28;20241;-61
2024/01/28 02:07:40;;;;;;;7.30;3.47;;;;;;;-1.26;100.00;145948.47;4957399;28;20218;-61
2024/01/28 02:10:09;;;;;;;7.37;3.80;;;;;;;-1.25;100.00;145952.13;4957349;28;20295;-61
2024/01/28 02:12:36;;;;;;;10.23;4.10;;;;;;;-1.23;100.00;145955.88;4954260;28;20698;-61
2024/01/28 02:15:04;;;;;;;6.70;3.90;;;;;;;-1.21;100.00;145962.03;4958067;28;20224;-61
2024/01/28 02:17:31;;;;;;;11.23;4.27;;;;;;;-1.19;100.00;145965.75;4952537;28;20827;-61
2024/01/28 02:19:58;;;;;;;13.93;4.80;;;;;;;-1.19;100.00;145966.97;4955818;28;20233;-61
2024/01/28 02:22:25;;;;;;;8.47;4.10;;;;;;;-1.23;100.00;145957.06;4954761;28;20550;-61
2024/01/28 02:24:53;;;;;;;6.57;4.33;;;;;;;-1.26;100.00;145949.66;4955287;28;20237;-61
2024/01/28 02:27:20;;;;;;;17.27;5.47;;;;;;;-1.19;100.00;145966.97;4954032;28;20274;-62
2024/01/28 02:29:47;;;;;;;11.57;5.13;;;;;;;-1.11;100.00;145984.25;4959956;28;20831;-61
2024/01/28 02:32:16;;;;;;;14.67;5.30;;;;;;;-1.07;100.00;145995.38;4953886;28;20229;-61
2024/01/28 02:34:43;;;;;;;14.10;5.30;;;;;;;-1.11;100.00;145985.50;4961928;28;20240;-61
2024/01/28 02:37:11;;;;;;;10.87;5.47;;;;;;;-1.06;100.00;145997.81;4952616;28;20290;-61
2024/01/28 02:39:37;;;;;;;10.40;5.00;;;;;;;-1.13;100.00;145979.31;4955625;28;20300;-61
2024/01/28 02:42:06;;;;;;;15.93;5.27;;;;;;;-1.07;100.00;145995.38;4957509;28;20245;-61
2024/01/28 02:44:33;;;;;;;14.93;5.70;;;;;;;-1.13;100.00;145980.56;4955260;28;20241;-61
2024/01/28 02:47:01;;;;;;;12.77;4.90;;;;;;;-1.11;100.00;145985.50;4956372;28;20218;-61
2024/01/28 02:49:28;;;;;;;9.97;4.57;;;;;;;-1.20;100.00;145963.28;4950940;28;20297;-61
2024/01/28 02:51:54;;;;;;;13.67;4.53;;;;;;;-1.15;100.00;145975.63;4955490;28;20234;-61
2024/01/28 02:54:22;;;;;;;9.27;4.50;;;;;;;-1.14;100.00;145978.09;4957011;28;20212;-61
2024/01/28 02:56:49;;;;;;;11.07;4.03;;;;;;;-1.20;100.00;145963.28;4955679;28;20759;-61
2024/01/28 02:59:17;;;;;;;9.80;3.97;;;;;;;-1.28;100.00;145943.53;4954972;28;20709;-61
2024/01/28 03:01:47;;;;;;;12.53;4.50;;;;;;;-1.21;100.00;145962.03;4950797;28;20285;-61
2024/01/28 03:04:14;;;;;;;15.63;4.60;;;;;;;-1.15;100.00;145974.38;4951552;28;20229;-61
2024/01/28 03:06:41;;;;;;;12.60;4.67;;;;;;;-1.27;100.00;145946.00;4955086;28;20232;-61
2024/01/28 03:09:07;;;;;;;12.03;4.23;;;;;;;-1.34;100.00;145931.16;4957110;28;20236;-61
2024/01/28 03:11:34;;;;;;;8.97;4.07;;;;;;;-1.38;100.00;145921.28;4952971;28;20255;-61
2024/01/28 03:14:01;;;;;;;14.90;4.83;;;;;;;-1.41;100.00;145912.63;4959222;28;20233;-61
2024/01/28 03:16:28;;;;;;;12.10;4.03;;;;;;;-1.42;100.00;145911.41;4957079;28;20227;-62
2024/01/28 03:18:55;;;;;;;5.97;3.47;;;;;;;-1.50;100.00;145891.66;4953992;28;20294;-62
2024/01/28 03:21:22;;;;;;;11.70;4.00;;;;;;;-1.45;100.00;145904.00;4954376;28;20230;-62
2024/01/28 03:23:48;;;;;;;10.20;4.83;;;;;;;-1.48;100.00;145896.59;4954656;28;20230;-61
2024/01/28 03:26:15;;;;;;;10.53;4.37;;;;;;;-1.47;100.00;145899.06;4955015;28;20233;-62
2024/01/28 03:28:42;;;;;;;15.27;4.60;;;;;;;-1.45;100.00;145902.75;4954677;28;20229;-61
2024/01/28 03:31:09;;;;;;;18.13;4.70;;;;;;;-1.49;100.00;145894.13;4954085;28;20253;-61
2024/01/28 03:33:37;;;;;;;10.83;4.37;;;;;;;-1.47;100.00;145899.06;4954436;28;20288;-61
2024/01/28 03:36:04;;;;;;;12.20;4.57;;;;;;;-1.53;100.00;145884.25;4954056;28;20708;-61
2024/01/28 03:38:30;;;;;;;12.97;4.30;;;;;;;-1.49;100.00;145894.13;4951809;28;20302;-61
2024/01/28 03:40:57;;;;;;;14.27;4.23;;;;;;;-1.34;100.00;145929.91;4953119;28;20288;-61
2024/01/28 03:43:23;;;;;;;8.93;4.30;;;;;;;-1.42;100.00;145910.16;4953160;28;20239;-61
2024/01/28 03:45:50;;;;;;;11.00;4.33;;;;;;;-1.41;100.00;145913.88;4955660;28;20739;-61
2024/01/28 03:48:17;;;;;;;9.50;4.80;;;;;;;-1.44;100.00;145906.47;4955320;28;20273;-61
2024/01/28 03:50:45;;;;;;;8.13;4.30;;;;;;;-1.51;100.00;145890.41;4956569;28;20218;-61
2024/01/28 03:53:12;;;;;;;11.13;4.47;;;;;;;-1.59;100.00;145869.44;4953204;28;20597;-61
2024/01/28 03:55:38;;;;;;;10.47;4.63;;;;;;;-1.50;100.00;145891.66;4970542;28;20358;-61
2024/01/28 03:58:05;;;;;;;9.77;4.57;;;;;;;-1.48;100.00;145897.81;4954986;28;20224;-61
2024/01/28 04:00:33;;;;;;;10.77;4.40;;;;;;;-1.54;100.00;145881.78;4945363;28;20245;-61
2024/01/28 04:03:01;;;;;;;11.17;4.73;;;;;;;-1.55;100.00;145880.50;4954896;28;20229;-61
2024/01/28 04:05:27;;;;;;;10.30;4.37;;;;;;;-1.44;100.00;145906.47;4953688;28;20237;-60
2024/01/28 04:07:55;;;;;;;12.47;3.90;;;;;;;-1.49;100.00;145895.34;4957138;28;20241;-60
2024/01/28 04:10:22;;;;;;;7.47;4.00;;;;;;;-1.44;100.00;145906.47;4951052;28;20224;-61
2024/01/28 04:12:48;;;;;;;11.33;3.90;;;;;;;-1.48;100.00;145896.59;4954165;28;20233;-61
2024/01/28 04:15:15;;;;;;;9.50;4.43;;;;;;;-1.45;100.00;145902.75;4951120;28;20240;-61
2024/01/28 04:17:42;;;;;;;11.20;3.97;;;;;;;-1.50;100.00;145891.66;4956190;28;20234;-61
2024/01/28 04:20:09;;;;;;;5.80;3.70;;;;;;;-1.64;100.00;145859.56;4952705;28;20294;-61
2024/01/28 04:22:36;;;;;;;11.63;3.30;;;;;;;-1.63;100.00;145862.00;4941427;28;20744;-61
2024/01/28 04:25:04;;;;;;;9.90;3.77;;;;;;;-1.63;100.00;145860.81;4953515;28;20236;-61
2024/01/28 04:27:31;;;;;;;9.93;3.20;;;;;;;-1.69;100.00;145847.19;4951127;28;20296;-61
2024/01/28 04:29:57;;;;;;;8.27;3.57;;;;;;;-1.73;100.00;145837.31;4957666;28;20222;-62
2024/01/28 04:32:24;;;;;;;8.77;3.90;;;;;;;-1.74;100.00;145833.66;5172666;23;20224;-61
2024/01/28 04:34:51;;;;;;;10.53;4.00;;;;;;;-1.71;100.00;145841.06;4973438;28;20284;-61
2024/01/28 04:37:17;;;;;;;6.77;3.23;;;;;;;-1.77;100.00;145826.25;4971125;28;20295;-61
2024/01/28 04:39:44;;;;;;;8.17;3.50;;;;;;;-1.76;100.00;145829.91;4970478;28;20747;-61
2024/01/28 04:42:12;;;;;;;9.90;3.50;;;;;;;-1.54;100.00;145881.78;4980143;28;20232;-61
2024/01/28 04:44:38;;;;;;;8.17;3.37;;;;;;;-1.56;100.00;145876.84;4964237;28;20232;-61
2024/01/28 04:47:06;;;;;;;10.83;3.43;;;;;;;-1.66;100.00;145853.41;4972703;28;20232;-60
2024/01/28 04:49:33;;;;;;;11.07;3.50;;;;;;;-1.59;100.00;145870.63;4972298;28;20236;-61
2024/01/28 04:52:00;;;;;;;8.43;3.67;;;;;;;-1.60;100.00;145866.97;4977020;28;20236;-61
2024/01/28 04:54:26;;;;;;;7.33;3.63;;;;;;;-1.56;100.00;145878.03;4985525;28;20714;-61
2024/01/28 04:56:53;;;;;;;7.07;3.10;;;;;;;-1.60;100.00;145866.97;4965480;28;20223;-61
2024/01/28 04:59:21;;;;;;;8.10;3.30;;;;;;;-1.67;100.00;145852.16;4968959;28;20271;-61
2024/01/28 05:01:47;;;;;;;10.87;4.23;;;;;;;-1.66;100.00;145853.41;4974164;28;20240;-61
2024/01/28 05:04:14;;;;;;;5.73;3.00;;;;;;;-1.67;100.00;145850.94;4969323;28;20247;-61
2024/01/28 05:06:41;;;;;;;10.23;3.37;;;;;;;-1.69;100.00;145847.19;4974279;28;20235;-61
2024/01/28 05:09:08;;;;;;;8.60;3.03;;;;;;;-1.71;100.00;145841.06;4971383;28;20232;-61
2024/01/28 05:11:35;;;;;;;8.23;3.37;;;;;;;-1.57;100.00;145875.56;4970083;28;20712;-61
2024/01/28 05:14:01;;;;;;;4.87;2.70;;;;;;;-1.61;100.00;145864.50;4975386;28;20228;-61
2024/01/28 05:16:29;;;;;;;7.83;2.60;;;;;;;-1.67;100.00;145850.94;4971365;28;20623;-61
2024/01/28 05:18:56;;;;;;;5.90;2.73;;;;;;;-1.71;100.00;145842.25;4974391;28;20278;-61
2024/01/28 05:21:23;;;;;;;6.13;2.40;;;;;;;-1.72;100.00;145839.78;4973625;28;20241;-61
2024/01/28 05:23:50;;;;;;;6.77;2.40;;;;;;;-1.77;100.00;145827.44;4968176;28;20243;-61
2024/01/28 05:26:17;;;;;;;7.00;3.07;;;;;;;-1.83;100.00;145813.91;4969306;28;20287;-61
2024/01/28 05:28:44;;;;;;;5.10;2.03;;;;;;;-1.89;100.00;145797.81;4972352;28;20283;-61
2024/01/28 05:31:12;;;;;;;4.97;2.43;;;;;;;-1.98;100.00;145776.84;4974321;28;20221;-61
2024/01/28 05:33:40;;;;;;;4.60;2.30;;;;;;;-1.95;100.00;145785.47;4977579;28;20316;-61
2024/01/28 05:36:12;;;;;;;6.00;3.17;;;;;;;-1.93;100.00;145790.41;4976118;28;20608;-61
2024/01/28 05:38:38;;;;;;;5.20;2.70;;;;;;;-1.94;100.00;145787.94;4978760;28;20232;-61
2024/01/28 05:41:05;;;;;;;5.93;2.90;;;;;;;-1.84;100.00;145811.44;4978501;28;20233;-61
2024/01/28 05:43:32;;;;;;;8.17;2.57;;;;;;;-1.91;100.00;145794.13;4971161;28;20242;-61
2024/01/28 05:45:59;;;;;;;7.10;2.50;;;;;;;-2.01;100.00;145769.47;4979140;28;20237;-61
2024/01/28 05:48:31;;;;;;;3.70;2.20;;;;;;;-1.95;100.00;145785.47;4961376;28;20355;-61
2024/01/28 05:50:59;;;;;;;4.80;2.43;;;;;;;-2.03;100.00;145764.53;4979228;28;20296;-61
2024/01/28 05:53:30;;;;;;;2.60;2.00;;;;;;;-2.12;100.00;145744.78;4974641;28;20291;-61
2024/01/28 05:55:57;;;;;;;6.07;2.00;;;;;;;-2.16;100.00;145734.91;4978723;28;20236;-61
2024/01/28 05:58:24;;;;;;;2.50;1.60;;;;;;;-2.15;100.00;145736.16;4973458;28;20237;-61
2024/01/28 06:00:51;;;;;;;4.53;1.83;;;;;;;-2.16;100.00;145733.69;4976635;28;20295;-60
2024/01/28 06:03:18;;;;;;;4.90;2.20;;;;;;;-2.22;100.00;145720.09;4973178;28;20232;-61
2024/01/28 06:05:45;;;;;;;7.40;2.77;;;;;;;-2.25;100.00;145712.69;4975032;28;20237;-61
2024/01/28 06:08:13;;;;;;;6.17;3.73;;;;;;;-2.24;100.00;145715.16;4973635;28;20298;-61
2024/01/28 06:10:40;;;;;;;7.80;2.90;;;;;;;-2.28;100.00;145705.28;4975454;28;20227;-61
2024/01/28 06:13:07;;;;;;;5.00;2.20;;;;;;;-2.27;100.00;145707.75;4978916;28;20223;-61
2024/01/28 06:15:33;;;;;;;6.10;2.73;;;;;;;-2.29;100.00;145704.06;4974752;28;20263;-62
2024/01/28 06:18:01;;;;;;;6.27;2.17;;;;;;;-2.23;100.00;145718.88;4974930;28;20309;-62
2024/01/28 06:20:27;;;;;;;4.90;2.50;;;;;;;-2.30;100.00;145700.34;4970891;28;20283;-62
2024/01/28 06:22:54;;;;;;;4.60;2.10;;;;;;;-2.32;100.00;145695.41;4965227;28;20239;-62
2024/01/28 06:25:22;;;;;;;4.03;1.97;;;;;;;-2.28;100.00;145706.53;4972707;28;20235;-61
2024/01/28 06:27:49;;;;;;;6.67;2.70;;;;;;;-2.33;100.00;145694.19;4979457;28;21034;-61
2024/01/28 06:30:15;;;;;;;4.70;2.27;;;;;;;-2.32;100.00;145696.66;4973517;28;20864;-61
2024/01/28 06:32:42;;;;;;;5.53;1.80;;;;;;;-2.24;100.00;145716.41;4975863;28;20226;-61
2024/01/28 06:35:09;;;;;;;4.10;2.00;;;;;;;-2.28;100.00;145706.53;4975606;28;20236;-61
2024/01/28 06:37:36;;;;;;;4.77;2.00;;;;;;;-2.18;100.00;145729.97;4965094;28;20302;-61
2024/01/28 06:40:03;;;;;;;6.93;2.33;;;;;;;-2.22;100.00;145720.09;4967158;28;20227;-61
2024/01/28 06:42:32;;;;;;;5.77;2.33;;;;;;;-2.25;100.00;145712.69;4991062;28;20310;-63
2024/01/28 06:44:59;;;;;;;6.23;2.50;;;;;;;-2.26;100.00;145711.47;4975726;28;20315;-62
2024/01/28 06:47:26;;;;;;;6.33;3.00;;;;;;;-2.10;100.00;145749.72;4973519;28;20232;-62
2024/01/28 06:49:53;;;;;;;3.60;2.20;;;;;;;-2.11;100.00;145745.97;4966417;28;20272;-61
2024/01/28 06:52:20;;;;;;;5.40;2.30;;;;;;;-2.03;100.00;145764.53;4956151;28;20248;-61
2024/01/28 06:54:46;;;;;;;4.83;2.43;;;;;;;-2.06;100.00;145758.31;4976850;28;20232;-61
2024/01/28 06:57:13;;;;;;;5.57;2.50;;;;;;;-2.07;100.00;145755.84;4975838;28;20230;-61
2024/01/28 06:59:43;;;;;;;3.43;2.00;;;;;;;-2.09;100.00;145750.91;4976249;28;20240;-61
2024/01/28 07:02:09;;;;;;;5.13;2.10;;;;;;;-2.05;100.00;145760.78;4977663;28;20331;-61
2024/01/28 07:04:36;;;;;;;4.43;1.93;;;;;;;-2.10;100.00;145749.72;4970064;28;20255;-61
2024/01/28 07:07:03;;;;;;;5.50;2.33;;;;;;;-2.03;100.00;145764.53;4976606;28;20720;-61
2024/01/28 07:09:30;;;;;;;7.50;2.47;;;;;;;-1.99;100.00;145775.59;4972434;28;20316;-63
2024/01/28 07:11:57;;;;;;;14.27;5.93;;;;;;;-2.02;100.00;145767.00;4974659;28;20240;-61
2024/01/28 07:14:23;;;;;;;3.00;2.00;;;;;;;-1.95;100.00;145785.47;4973153;28;20225;-62
2024/01/28 07:16:51;;;;;;;7.03;3.30;;;;;;;-1.98;100.00;145778.06;4976482;28;20240;-62
2024/01/28 07:19:18;;;;;;;12.97;7.60;;;;;;;-1.91;100.00;145792.88;4955935;28;20239;-62
2024/01/28 07:21:45;;;;;;;15.00;8.63;;;;;;;-1.97;100.00;145780.53;4975406;28;20223;-62
2024/01/28 07:24:12;;;;;;;11.67;5.87;;;;;;;-1.97;100.00;145779.34;4970680;28;20931;-61
2024/01/28 07:26:39;;;;;;;11.10;6.00;;;;;;;-1.98;100.00;145778.06;4974698;28;20234;-62
2024/01/28 07:29:06;;;;;;;10.90;5.60;;;;;;;-1.97;100.00;145780.53;4974099;28;20283;-61
2024/01/28 07:31:32;;;;;;;12.87;5.50;;;;;;;-1.93;100.00;145789.22;4975057;28;20232;-62
2024/01/28 07:34:01;;;;;;;9.20;5.27;;;;;;;-1.92;100.00;145791.69;4974608;28;20238;-62
2024/01/28 07:36:30;;;;;;;11.20;4.87;;;;;;;-1.88;100.00;145800.28;4971799;28;20574;-62
2024/01/28 07:38:56;;;;;;;10.13;4.50;;;;;;;-1.89;100.00;145799.09;4973101;28;20232;-61
2024/01/28 07:41:24;;;;;;;13.13;4.90;;;;;;;-1.90;100.00;145796.63;4977061;28;20243;-62
2024/01/28 07:43:51;;;;;;;9.50;5.43;;;;;;;-1.87;100.00;145804.03;4975739;28;20231;-62
2024/01/28 07:46:18;;;;;;;11.50;5.37;;;;;;;-1.86;100.00;145805.22;4964303;28;20884;-61
2024/01/28 07:48:45;;;;;;;9.53;4.30;;;;;;;-1.88;100.00;145801.56;4966756;28;20240;-61
2024/01/28 07:51:12;;;;;;;7.63;4.30;;;;;;;-1.87;100.00;145802.75;4969536;28;20724;-61
2024/01/28 07:53:38;;;;;;;6.97;4.13;;;;;;;-1.88;100.00;145800.28;4972355;28;20249;-61
2024/01/28 07:56:05;;;;;;;7.87;4.20;;;;;;;-1.85;100.00;145807.69;4973919;28;20220;-61
2024/01/28 07:58:32;;;;;;;6.83;2.93;;;;;;;-1.82;100.00;145816.38;4971608;28;20232;-61
2024/01/28 08:00:59;;;;;;;24.90;14.63;;;;;;;-1.75;100.00;145831.19;4973085;28;20241;-61
2024/01/28 08:03:28;;;;;;;8.13;5.00;;;;;;;-1.71;100.00;145842.25;4973450;28;20232;-61
2024/01/28 08:05:54;;;;;;;11.17;4.87;;;;;;;-1.61;100.00;145864.50;4975709;28;20260;-61
2024/01/28 08:08:22;;;;;;;10.50;5.70;;;;;;;-1.56;100.00;145878.03;4972199;28;20244;-61
2024/01/28 08:10:49;;;;;;;11.70;5.77;;;;;;;-1.44;100.00;145906.47;4965509;28;20209;-61
2024/01/28 08:13:16;;;;;;;8.17;3.57;;;;;;;-1.39;100.00;145917.56;4944225;28;20259;-61
2024/01/28 08:15:43;;;;;;;8.03;4.10;;;;;;;-1.28;100.00;145943.53;4973488;28;20231;-61
2024/01/28 08:18:11;;;;;;;8.60;4.00;;;;;;;-1.21;100.00;145962.03;4974421;28;20233;-62
2024/01/28 08:20:37;;;;;;;5.20;3.87;;;;;;;-1.09;100.00;145990.44;4973158;28;20309;-62
2024/01/28 08:23:04;;;;;;;7.43;2.70;;;;;;;-0.93;100.00;146027.47;4974530;28;20224;-61
2024/01/28 08:25:32;;;;;;;8.67;2.63;;;;;;;-0.83;100.00;146052.16;4972462;28;20241;-61
2024/01/28 08:27:59;;;;;;;10.93;5.10;;;;;;;-0.79;100.00;146060.84;4975035;28;20434;-61
2024/01/28 08:30:26;;;;;;;13.80;7.40;;;;;;;-0.66;100.00;146091.72;4971200;28;20708;-61
2024/01/28 08:32:52;;;;;;;8.73;5.03;;;;;;;-0.55;100.00;146118.88;4973261;28;20615;-61
2024/01/28 08:35:21;;;;;;;11.23;5.33;;;;;;;-0.45;100.00;146142.34;4961136;28;20566;-61
2024/01/28 08:37:48;;;;;;;10.17;4.83;;;;;;;-0.43;100.00;146146.06;4974920;28;20294;-61
2024/01/28 08:40:14;;;;;;;14.77;7.00;;;;;;;-0.37;100.00;146162.13;4970061;28;20238;-61
2024/01/28 08:42:42;;;;;;;12.30;7.00;;;;;;;-0.34;100.00;146169.53;4966285;28;20233;-61
2024/01/28 08:45:10;;;;;;;13.13;6.60;;;;;;;-0.36;100.00;146163.38;4972394;28;20612;-62
2024/01/28 08:47:36;;;;;;;9.33;5.77;;;;;;;-0.36;100.00;146164.59;4972654;28;20233;-61
2024/01/28 08:50:03;;;;;;;12.00;5.33;;;;;;;-0.33;100.00;146172.00;4978563;28;20230;-61
2024/01/28 08:52:30;;;;;;;8.43;5.00;;;;;;;-0.30;100.00;146178.22;4972286;28;20250;-61
2024/01/28 08:54:57;;;;;;;11.03;5.57;;;;;;;-0.22;100.00;146196.72;4974870;28;20229;-61
2024/01/28 08:57:23;;;;;;;8.00;4.97;;;;;;;-0.18;100.00;146206.63;4971728;28;20814;-61
2024/01/28 08:59:51;;;;;;;8.37;4.20;;;;;;;-0.15;100.00;146214.03;4974036;28;20224;-61
2024/01/28 09:02:18;;;;;;;8.27;4.20;;;;;;;-0.17;100.00;146209.09;4970448;28;20237;-62
2024/01/28 09:04:44;;;;;;;7.53;3.33;;;;;;;-0.19;100.00;146205.41;4974769;28;20560;-62
2024/01/28 09:07:11;;;;;;;7.87;3.10;;;;;;;-0.12;100.00;146221.44;4976793;28;20449;-62
2024/01/28 09:09:37;;;;;;;4.63;3.03;;;;;;;-0.08;100.00;146230.13;4969795;28;20238;-62
2024/01/28 09:12:05;;;;;;;4.77;2.80;;;;;;;-0.05;100.00;146237.53;4968742;28;20240;-62
2024/01/28 09:14:32;;;;;;;4.40;2.33;;;;;;;-0.07;100.00;146233.81;4974567;28;20232;-62
2024/01/28 09:17:00;;;;;;;5.80;2.43;;;;;;;0.01;100.00;146251.13;4979442;28;20237;-62
2024/01/28 09:19:26;;;;;;;6.57;2.57;;;;;;;0.18;100.00;146291.88;4976079;28;20246;-62
2024/01/28 09:21:53;;;;;;;8.07;3.23;;;;;;;0.29;100.00;146319.09;4978023;28;20245;-62
2024/01/28 09:24:19;;;;;;;13.50;4.03;;;;;;;0.39;100.00;146342.59;4972524;28;20752;-62
2024/01/28 09:26:46;;;;;;;8.63;3.60;;;;;;;0.48;100.00;146364.88;4976710;28;20234;-62
2024/01/28 09:29:13;;;;;;;5.03;3.37;;;;;;;0.59;100.00;146390.81;4977347;28;20231;-62
2024/01/28 09:31:44;;;;;;;10.53;3.83;;;;;;;0.71;100.00;146420.50;4979969;28;20323;-62
2024/01/28 09:34:12;;;;;;;7.83;3.83;;;;;;;0.86;100.00;146455.13;4966427;28;20229;-62
2024/01/28 09:36:39;;;;;;;37.13;20.17;;;;;;;1.04;100.00;146498.41;4965248;28;20225;-61
2024/01/28 09:39:05;;;;;;;24.47;13.50;;;;;;;1.24;100.00;146545.41;4971323;28;20220;-61
2024/01/28 09:41:41;;;;;;;16.87;11.37;;;;;;;1.40;100.00;146585.03;4945251;28;20244;-62
2024/01/28 09:44:08;;;;;;;23.10;11.10;;;;;;;1.54;100.00;146618.41;4969578;28;20225;-62
2024/01/28 09:46:35;;;;;;;27.10;14.73;;;;;;;1.62;100.00;146638.22;4973754;28;20233;-62
2024/01/28 09:49:03;;;;;;;23.97;13.23;;;;;;;1.77;100.00;146674.09;4977227;28;20299;-62
2024/01/28 09:51:31;;;;;;;22.20;11.53;;;;;;;1.81;100.00;146681.53;4972192;28;20241;-62
2024/01/28 09:53:57;;;;;;;19.43;10.27;;;;;;;1.86;100.00;146695.16;4975998;28;20230;-62
2024/01/28 09:56:25;;;;;;;20.23;9.90;;;;;;;1.95;100.00;146714.97;4975735;28;20241;-62
2024/01/28 09:58:53;;;;;;;19.07;10.47;;;;;;;2.02;100.00;146732.28;4975903;28;20582;-62
2024/01/28 10:01:19;;;;;;;34.13;18.77;;;;;;;2.09;100.00;146749.63;4973775;28;20244;-62
2024/01/28 10:03:47;;;;;;;15.90;8.87;;;;;;;2.16;100.00;146766.91;4972695;28;20217;-62
2024/01/28 10:06:13;;;;;;;22.63;12.87;;;;;;;2.26;100.00;146790.47;4983685;28;20686;-62
2024/01/28 10:08:41;;;;;;;22.97;15.27;;;;;;;2.36;100.00;146813.97;4976286;28;20233;-62
2024/01/28 10:11:09;;;;;;;28.60;14.13;;;;;;;2.40;100.00;146823.88;4977218;28;20233;-62
2024/01/28 10:13:36;;;;;;;35.43;21.20;;;;;;;2.46;100.00;146838.75;4992161;28;20632;-62
2024/01/28 10:16:03;;;;;;;21.43;13.97;;;;;;;2.55;100.00;146859.81;4974814;28;21030;-62
2024/01/28 10:18:30;;;;;;;22.03;13.33;;;;;;;2.55;100.00;146859.81;4973908;28;20604;-62
2024/01/28 10:20:56;;;;;;;26.93;14.73;;;;;;;2.53;100.00;146853.59;4977783;28;20237;-63
2024/01/28 10:23:23;;;;;;;20.27;12.17;;;;;;;2.58;100.00;146866.00;4975118;28;20240;-62
2024/01/28 10:25:52;;;;;;;37.97;22.70;;;;;;;2.60;100.00;146872.22;4983464;28;20226;-62
2024/01/28 10:28:19;;;;;;;20.15;12.80;;;;;;;2.64;100.00;146880.84;4974641;28;20440;-62
2024/01/28 10:30:49;;;;;;;21.53;13.50;;;;;;;2.68;100.00;146889.50;4975811;28;20236;-62
2024/01/28 10:33:15;;;;;;;49.40;26.97;;;;;;;2.68;100.00;146890.78;4977458;28;20229;-62
2024/01/28 10:35:42;;;;;;;39.70;21.57;;;;;;;2.74;100.00;146905.63;4968666;28;20244;-62
2024/01/28 10:38:15;;;;;;;25.93;17.63;;;;;;;2.84;100.00;146927.94;4975051;28;20222;-62
2024/01/28 10:40:45;;;;;;;24.70;14.17;;;;;;;2.84;100.00;146927.94;4971763;28;20222;-63
2024/01/28 10:43:17;;;;;;;27.73;16.40;;;;;;;2.86;100.00;146932.88;4971877;28;20236;-63
2024/01/28 10:45:47;;;;;;;22.23;13.90;;;;;;;2.91;100.00;146945.28;4974572;28;20739;-62
2024/01/28 10:48:20;;;;;;;23.27;13.17;;;;;;;3.02;100.00;146971.28;4972151;28;20713;-63
2024/01/28 10:50:48;;;;;;;23.80;12.57;;;;;;;3.05;100.00;146979.97;4991593;28;20237;-63
2024/01/28 10:53:16;;;;;;;27.57;15.30;;;;;;;3.05;100.00;146978.69;4970998;28;20225;-62
2024/01/28 10:55:43;;;;;;;20.53;13.87;;;;;;;3.17;100.00;147008.44;4977802;28;20238;-62
2024/01/28 10:58:11;;;;;;;22.50;14.33;;;;;;;3.17;100.00;147008.44;4979654;28;21076;-62
2024/01/28 11:00:39;;;;;;;25.63;14.83;;;;;;;3.19;100.00;147013.41;4972948;28;20625;-62
2024/01/28 11:03:07;;;;;;;20.83;14.47;;;;;;;3.22;100.00;147020.84;4977857;28;20233;-62
2024/01/28 11:05:36;;;;;;;26.10;15.67;;;;;;;3.29;100.00;147035.72;4974014;28;20316;-62
2024/01/28 11:08:04;;;;;;;22.90;14.60;;;;;;;3.25;100.00;147027.00;4976238;28;20228;-62
2024/01/28 11:10:31;;;;;;;20.77;14.27;;;;;;;3.40;100.00;147062.97;4972465;28;20247;-62
2024/01/28 11:12:58;;;;;;;24.13;15.37;;;;;;;3.46;100.00;147077.84;4975041;28;20238;-62
2024/01/28 11:15:26;;;;;;;27.60;14.93;;;;;;;3.37;100.00;147055.53;4972831;28;20240;-62